Aviation Digital Data Service (ADDS)

Output produced by TAFs form (1516 UTC 29 September 2016)
found at http://aviationweather.gov/adds/tafs/
 
KVEL 291123Z 2912/3012 VRB04KT P6SM VCSH SCT100 BKN150 
     TEMPO 2912/2916 VRB05KT -SHRA SCT080 OVC100 
     FM291700 12004KT P6SM VCSH BKN090 
     FM291800 17005KT P6SM VCTS BKN090CB 
     FM300200 VRB03KT P6SM BKN110